Hutchinson, Minnesota
Current Conditions -  °F | °C
As of 3:12 PM on Tuesday 21 Oct 2014 (Local Time) from KHCD Reporting Station
Clear Clear  
Wind Chill: 62°   Ceiling: Unl
Heat Index: 62°   Visibility: 10mi
Dew Point: 43°   Wind: 13mph
Humidity: 50%   Direction: 110°ESE
Pressure: 30.1"   Gusts: 22mph
Location:  44.89°N, 94.37°W
Report Text: KHCD 212012Z AUTO 11011G19KT 10SM CLR 17/06 A3010 RMK AO2 T01680063
Loading
Personal Weather Stations






























Interactive Weather Map
Tropical Storm Tracking
New forecast layout! Learn more

10-Day Weather Forecast

Advertisements
Track Severe Weather on mobile